sensor_id;sensor_type;location;lat;lon;timestamp;P1;durP1;ratioP1;P2;durP2;ratioP2
18411;SDS011;27097;51.738;19.472;2023-04-24T00:00:21;15.93;;;10.13;;
18411;SDS011;27097;51.738;19.472;2023-04-24T00:02:48;19.48;;;10.40;;
18411;SDS011;27097;51.738;19.472;2023-04-24T00:05:15;17.02;;;11.00;;
18411;SDS011;27097;51.738;19.472;2023-04-24T00:07:46;17.85;;;10.55;;
18411;SDS011;27097;51.738;19.472;2023-04-24T00:10:13;17.95;;;10.90;;
18411;SDS011;27097;51.738;19.472;2023-04-24T00:12:40;16.13;;;10.35;;
18411;SDS011;27097;51.738;19.472;2023-04-24T00:15:08;16.33;;;9.70;;
18411;SDS011;27097;51.738;19.472;2023-04-24T00:17:35;18.05;;;10.02;;
18411;SDS011;27097;51.738;19.472;2023-04-24T00:20:02;16.02;;;10.15;;
18411;SDS011;27097;51.738;19.472;2023-04-24T00:22:31;18.20;;;10.98;;
18411;SDS011;27097;51.738;19.472;2023-04-24T00:25:00;16.33;;;9.57;;
18411;SDS011;27097;51.738;19.472;2023-04-24T00:27:27;30.15;;;11.80;;
18411;SDS011;27097;51.738;19.472;2023-04-24T00:29:53;20.42;;;10.85;;
18411;SDS011;27097;51.738;19.472;2023-04-24T00:32:20;19.13;;;10.27;;
18411;SDS011;27097;51.738;19.472;2023-04-24T00:34:47;23.23;;;10.90;;
18411;SDS011;27097;51.738;19.472;2023-04-24T00:37:14;24.13;;;10.35;;
18411;SDS011;27097;51.738;19.472;2023-04-24T00:39:41;23.05;;;10.25;;
18411;SDS011;27097;51.738;19.472;2023-04-24T00:42:09;21.65;;;11.00;;
18411;SDS011;27097;51.738;19.472;2023-04-24T00:44:36;20.00;;;10.48;;
18411;SDS011;27097;51.738;19.472;2023-04-24T00:47:03;20.60;;;10.73;;
18411;SDS011;27097;51.738;19.472;2023-04-24T00:49:30;18.70;;;10.02;;
18411;SDS011;27097;51.738;19.472;2023-04-24T00:51:57;18.33;;;10.25;;
18411;SDS011;27097;51.738;19.472;2023-04-24T00:54:24;16.40;;;9.70;;
18411;SDS011;27097;51.738;19.472;2023-04-24T00:56:51;18.38;;;10.38;;
18411;SDS011;27097;51.738;19.472;2023-04-24T00:59:19;22.52;;;9.75;;
18411;SDS011;27097;51.738;19.472;2023-04-24T01:01:46;16.38;;;9.50;;
18411;SDS011;27097;51.738;19.472;2023-04-24T01:04:13;16.50;;;9.52;;
18411;SDS011;27097;51.738;19.472;2023-04-24T01:06:40;17.58;;;9.45;;
18411;SDS011;27097;51.738;19.472;2023-04-24T01:09:10;19.15;;;10.27;;
18411;SDS011;27097;51.738;19.472;2023-04-24T01:11:37;15.02;;;9.18;;
18411;SDS011;27097;51.738;19.472;2023-04-24T01:14:05;18.98;;;9.85;;
18411;SDS011;27097;51.738;19.472;2023-04-24T01:16:34;20.60;;;9.85;;
18411;SDS011;27097;51.738;19.472;2023-04-24T01:19:03;13.77;;;8.60;;
18411;SDS011;27097;51.738;19.472;2023-04-24T01:21:30;22.15;;;9.25;;
18411;SDS011;27097;51.738;19.472;2023-04-24T01:24:01;17.52;;;9.60;;
18411;SDS011;27097;51.738;19.472;2023-04-24T01:26:28;16.13;;;9.05;;
18411;SDS011;27097;51.738;19.472;2023-04-24T01:28:55;16.15;;;9.40;;
18411;SDS011;27097;51.738;19.472;2023-04-24T01:31:22;18.20;;;9.68;;
18411;SDS011;27097;51.738;19.472;2023-04-24T01:33:49;15.13;;;9.38;;
18411;SDS011;27097;51.738;19.472;2023-04-24T01:36:16;20.08;;;9.27;;
18411;SDS011;27097;51.738;19.472;2023-04-24T01:38:45;20.13;;;9.38;;
18411;SDS011;27097;51.738;19.472;2023-04-24T01:41:13;13.05;;;9.60;;
18411;SDS011;27097;51.738;19.472;2023-04-24T01:43:40;16.92;;;9.77;;
18411;SDS011;27097;51.738;19.472;2023-04-24T01:46:06;14.95;;;8.93;;
18411;SDS011;27097;51.738;19.472;2023-04-24T01:48:34;16.10;;;9.55;;
18411;SDS011;27097;51.738;19.472;2023-04-24T01:51:01;15.15;;;8.77;;
18411;SDS011;27097;51.738;19.472;2023-04-24T01:53:28;11.73;;;8.13;;
18411;SDS011;27097;51.738;19.472;2023-04-24T01:55:55;14.57;;;9.38;;
18411;SDS011;27097;51.738;19.472;2023-04-24T01:58:24;16.83;;;9.57;;
18411;SDS011;27097;51.738;19.472;2023-04-24T02:00:51;15.70;;;8.60;;
18411;SDS011;27097;51.738;19.472;2023-04-24T02:03:18;23.05;;;9.75;;
18411;SDS011;27097;51.738;19.472;2023-04-24T02:05:45;15.20;;;9.30;;
18411;SDS011;27097;51.738;19.472;2023-04-24T02:08:12;13.52;;;8.40;;
18411;SDS011;27097;51.738;19.472;2023-04-24T02:10:38;13.82;;;8.05;;
18411;SDS011;27097;51.738;19.472;2023-04-24T02:13:05;19.33;;;8.68;;
18411;SDS011;27097;51.738;19.472;2023-04-24T02:15:33;14.63;;;8.60;;
18411;SDS011;27097;51.738;19.472;2023-04-24T02:18:01;13.20;;;8.23;;
18411;SDS011;27097;51.738;19.472;2023-04-24T02:20:27;14.70;;;8.52;;
18411;SDS011;27097;51.738;19.472;2023-04-24T02:22:54;17.02;;;9.10;;
18411;SDS011;27097;51.738;19.472;2023-04-24T02:25:21;15.25;;;8.38;;
18411;SDS011;27097;51.738;19.472;2023-04-24T02:27:48;14.52;;;8.20;;
18411;SDS011;27097;51.738;19.472;2023-04-24T02:30:15;12.68;;;8.45;;
18411;SDS011;27097;51.738;19.472;2023-04-24T02:32:43;15.43;;;8.90;;
18411;SDS011;27097;51.738;19.472;2023-04-24T02:35:10;13.60;;;8.02;;
18411;SDS011;27097;51.738;19.472;2023-04-24T02:37:37;14.02;;;8.65;;
18411;SDS011;27097;51.738;19.472;2023-04-24T02:40:05;15.70;;;9.00;;
18411;SDS011;27097;51.738;19.472;2023-04-24T02:42:33;13.02;;;8.15;;
18411;SDS011;27097;51.738;19.472;2023-04-24T02:44:59;16.08;;;9.30;;
18411;SDS011;27097;51.738;19.472;2023-04-24T02:47:26;13.98;;;8.98;;
18411;SDS011;27097;51.738;19.472;2023-04-24T02:49:54;15.13;;;8.07;;
18411;SDS011;27097;51.738;19.472;2023-04-24T02:52:21;14.32;;;9.02;;
18411;SDS011;27097;51.738;19.472;2023-04-24T02:54:48;13.85;;;9.23;;
18411;SDS011;27097;51.738;19.472;2023-04-24T02:57:15;13.75;;;8.50;;
18411;SDS011;27097;51.738;19.472;2023-04-24T02:59:42;17.00;;;9.15;;
18411;SDS011;27097;51.738;19.472;2023-04-24T03:02:09;12.50;;;8.18;;
18411;SDS011;27097;51.738;19.472;2023-04-24T03:04:35;17.08;;;8.88;;
18411;SDS011;27097;51.738;19.472;2023-04-24T03:07:04;11.90;;;8.20;;
18411;SDS011;27097;51.738;19.472;2023-04-24T03:09:31;14.20;;;8.90;;
18411;SDS011;27097;51.738;19.472;2023-04-24T03:11:57;16.27;;;8.55;;
18411;SDS011;27097;51.738;19.472;2023-04-24T03:14:25;15.60;;;8.02;;
18411;SDS011;27097;51.738;19.472;2023-04-24T03:16:52;12.68;;;8.02;;
18411;SDS011;27097;51.738;19.472;2023-04-24T03:19:19;14.27;;;8.15;;
18411;SDS011;27097;51.738;19.472;2023-04-24T03:21:45;13.60;;;8.40;;
18411;SDS011;27097;51.738;19.472;2023-04-24T03:24:14;11.55;;;8.00;;
18411;SDS011;27097;51.738;19.472;2023-04-24T03:26:41;14.60;;;8.25;;
18411;SDS011;27097;51.738;19.472;2023-04-24T03:29:07;14.02;;;8.20;;
18411;SDS011;27097;51.738;19.472;2023-04-24T03:31:34;15.50;;;8.25;;
18411;SDS011;27097;51.738;19.472;2023-04-24T03:34:01;14.45;;;8.40;;
18411;SDS011;27097;51.738;19.472;2023-04-24T03:36:28;13.57;;;8.43;;
18411;SDS011;27097;51.738;19.472;2023-04-24T03:38:56;13.10;;;8.15;;
18411;SDS011;27097;51.738;19.472;2023-04-24T03:41:24;14.55;;;8.77;;
18411;SDS011;27097;51.738;19.472;2023-04-24T03:43:51;12.65;;;8.50;;
18411;SDS011;27097;51.738;19.472;2023-04-24T03:46:18;12.52;;;8.80;;
18411;SDS011;27097;51.738;19.472;2023-04-24T03:48:44;13.60;;;8.30;;
18411;SDS011;27097;51.738;19.472;2023-04-24T03:51:11;14.50;;;8.18;;
18411;SDS011;27097;51.738;19.472;2023-04-24T03:53:38;14.68;;;8.90;;
18411;SDS011;27097;51.738;19.472;2023-04-24T03:56:05;14.73;;;8.32;;
18411;SDS011;27097;51.738;19.472;2023-04-24T03:58:33;12.73;;;8.27;;
18411;SDS011;27097;51.738;19.472;2023-04-24T04:01:00;13.93;;;8.85;;
18411;SDS011;27097;51.738;19.472;2023-04-24T04:03:27;10.77;;;7.47;;
18411;SDS011;27097;51.738;19.472;2023-04-24T04:05:54;12.18;;;8.40;;
18411;SDS011;27097;51.738;19.472;2023-04-24T04:08:21;12.90;;;8.70;;
18411;SDS011;27097;51.738;19.472;2023-04-24T04:10:48;13.52;;;8.43;;
18411;SDS011;27097;51.738;19.472;2023-04-24T04:13:16;11.68;;;8.20;;
18411;SDS011;27097;51.738;19.472;2023-04-24T04:15:44;13.10;;;8.40;;
18411;SDS011;27097;51.738;19.472;2023-04-24T04:18:11;12.80;;;8.25;;
18411;SDS011;27097;51.738;19.472;2023-04-24T04:20:38;15.00;;;8.90;;
18411;SDS011;27097;51.738;19.472;2023-04-24T04:23:05;13.20;;;8.32;;
18411;SDS011;27097;51.738;19.472;2023-04-24T04:25:32;16.00;;;8.40;;
18411;SDS011;27097;51.738;19.472;2023-04-24T04:27:59;11.27;;;8.27;;
18411;SDS011;27097;51.738;19.472;2023-04-24T04:30:27;13.55;;;8.60;;
18411;SDS011;27097;51.738;19.472;2023-04-24T04:32:55;13.90;;;8.75;;
18411;SDS011;27097;51.738;19.472;2023-04-24T04:35:22;10.95;;;7.65;;
18411;SDS011;27097;51.738;19.472;2023-04-24T04:37:49;14.73;;;8.60;;
18411;SDS011;27097;51.738;19.472;2023-04-24T04:40:16;13.93;;;9.05;;
18411;SDS011;27097;51.738;19.472;2023-04-24T04:42:43;15.88;;;8.80;;
18411;SDS011;27097;51.738;19.472;2023-04-24T04:45:11;13.25;;;8.35;;
18411;SDS011;27097;51.738;19.472;2023-04-24T04:47:38;14.43;;;8.23;;
18411;SDS011;27097;51.738;19.472;2023-04-24T04:50:07;13.57;;;8.40;;
18411;SDS011;27097;51.738;19.472;2023-04-24T04:52:35;13.73;;;8.90;;
18411;SDS011;27097;51.738;19.472;2023-04-24T04:55:02;12.05;;;7.70;;
18411;SDS011;27097;51.738;19.472;2023-04-24T04:57:30;13.55;;;8.63;;
18411;SDS011;27097;51.738;19.472;2023-04-24T04:59:57;14.18;;;8.45;;
18411;SDS011;27097;51.738;19.472;2023-04-24T05:02:24;13.75;;;8.57;;
18411;SDS011;27097;51.738;19.472;2023-04-24T05:04:50;11.43;;;8.00;;
18411;SDS011;27097;51.738;19.472;2023-04-24T05:07:19;17.23;;;9.00;;
18411;SDS011;27097;51.738;19.472;2023-04-24T05:09:45;12.50;;;8.00;;
18411;SDS011;27097;51.738;19.472;2023-04-24T05:12:12;12.55;;;8.02;;
18411;SDS011;27097;51.738;19.472;2023-04-24T05:14:39;14.27;;;8.73;;
18411;SDS011;27097;51.738;19.472;2023-04-24T05:17:06;13.05;;;8.68;;
18411;SDS011;27097;51.738;19.472;2023-04-24T05:19:33;13.93;;;8.43;;
18411;SDS011;27097;51.738;19.472;2023-04-24T05:22:02;12.63;;;8.15;;
18411;SDS011;27097;51.738;19.472;2023-04-24T05:24:32;15.57;;;8.85;;
18411;SDS011;27097;51.738;19.472;2023-04-24T05:27:00;14.52;;;7.60;;
18411;SDS011;27097;51.738;19.472;2023-04-24T05:29:27;15.25;;;8.80;;
18411;SDS011;27097;51.738;19.472;2023-04-24T05:31:55;13.45;;;8.35;;
18411;SDS011;27097;51.738;19.472;2023-04-24T05:34:22;12.93;;;8.00;;
18411;SDS011;27097;51.738;19.472;2023-04-24T05:36:49;14.95;;;9.00;;
18411;SDS011;27097;51.738;19.472;2023-04-24T05:39:17;14.38;;;8.50;;
18411;SDS011;27097;51.738;19.472;2023-04-24T05:41:46;14.38;;;8.48;;
18411;SDS011;27097;51.738;19.472;2023-04-24T05:44:13;16.38;;;9.32;;
18411;SDS011;27097;51.738;19.472;2023-04-24T05:46:39;13.68;;;7.75;;
18411;SDS011;27097;51.738;19.472;2023-04-24T05:49:06;21.23;;;9.07;;
18411;SDS011;27097;51.738;19.472;2023-04-24T05:51:33;18.25;;;8.80;;
18411;SDS011;27097;51.738;19.472;2023-04-24T05:54:00;13.90;;;8.02;;
18411;SDS011;27097;51.738;19.472;2023-04-24T05:56:28;24.88;;;9.45;;
18411;SDS011;27097;51.738;19.472;2023-04-24T05:59:14;19.83;;;8.52;;
18411;SDS011;27097;51.738;19.472;2023-04-24T06:01:44;16.08;;;8.00;;
18411;SDS011;27097;51.738;19.472;2023-04-24T06:04:11;18.30;;;7.93;;
18411;SDS011;27097;51.738;19.472;2023-04-24T06:06:39;19.27;;;8.32;;
18411;SDS011;27097;51.738;19.472;2023-04-24T06:09:06;14.50;;;7.97;;
18411;SDS011;27097;51.738;19.472;2023-04-24T06:11:33;15.82;;;8.00;;
18411;SDS011;27097;51.738;19.472;2023-04-24T06:14:00;19.98;;;8.43;;
18411;SDS011;27097;51.738;19.472;2023-04-24T06:16:28;23.83;;;8.25;;
18411;SDS011;27097;51.738;19.472;2023-04-24T06:19:05;17.60;;;7.68;;
18411;SDS011;27097;51.738;19.472;2023-04-24T06:21:38;23.23;;;8.13;;
18411;SDS011;27097;51.738;19.472;2023-04-24T06:24:05;18.58;;;8.23;;
18411;SDS011;27097;51.738;19.472;2023-04-24T06:29:25;22.83;;;7.95;;
18411;SDS011;27097;51.738;19.472;2023-04-24T06:32:07;18.85;;;7.85;;
18411;SDS011;27097;51.738;19.472;2023-04-24T06:34:34;22.17;;;7.93;;
18411;SDS011;27097;51.738;19.472;2023-04-24T06:37:04;20.55;;;7.47;;
18411;SDS011;27097;51.738;19.472;2023-04-24T06:39:51;23.08;;;7.97;;
18411;SDS011;27097;51.738;19.472;2023-04-24T06:42:18;18.73;;;7.80;;
18411;SDS011;27097;51.738;19.472;2023-04-24T06:44:46;17.25;;;7.50;;
18411;SDS011;27097;51.738;19.472;2023-04-24T06:47:14;17.17;;;7.70;;
18411;SDS011;27097;51.738;19.472;2023-04-24T06:49:41;18.55;;;8.30;;
18411;SDS011;27097;51.738;19.472;2023-04-24T06:52:08;15.45;;;6.82;;
18411;SDS011;27097;51.738;19.472;2023-04-24T06:54:35;14.25;;;7.20;;
18411;SDS011;27097;51.738;19.472;2023-04-24T06:57:02;11.82;;;6.50;;
18411;SDS011;27097;51.738;19.472;2023-04-24T06:59:29;18.73;;;7.20;;
18411;SDS011;27097;51.738;19.472;2023-04-24T07:01:56;12.27;;;6.97;;
18411;SDS011;27097;51.738;19.472;2023-04-24T07:04:25;16.20;;;7.15;;
18411;SDS011;27097;51.738;19.472;2023-04-24T07:06:52;16.90;;;6.90;;
18411;SDS011;27097;51.738;19.472;2023-04-24T07:09:36;11.40;;;6.65;;
18411;SDS011;27097;51.738;19.472;2023-04-24T07:12:04;12.88;;;6.43;;
18411;SDS011;27097;51.738;19.472;2023-04-24T07:14:32;14.77;;;6.55;;
18411;SDS011;27097;51.738;19.472;2023-04-24T07:16:59;13.93;;;6.47;;
18411;SDS011;27097;51.738;19.472;2023-04-24T07:19:27;14.88;;;6.00;;
18411;SDS011;27097;51.738;19.472;2023-04-24T07:21:54;13.13;;;7.10;;
18411;SDS011;27097;51.738;19.472;2023-04-24T07:24:23;17.55;;;6.38;;
18411;SDS011;27097;51.738;19.472;2023-04-24T07:26:50;13.52;;;5.95;;
18411;SDS011;27097;51.738;19.472;2023-04-24T07:29:17;11.48;;;5.97;;
18411;SDS011;27097;51.738;19.472;2023-04-24T07:31:44;10.77;;;6.13;;
18411;SDS011;27097;51.738;19.472;2023-04-24T07:34:11;15.63;;;6.18;;
18411;SDS011;27097;51.738;19.472;2023-04-24T07:36:40;11.32;;;6.10;;
18411;SDS011;27097;51.738;19.472;2023-04-24T07:39:07;10.50;;;5.82;;
18411;SDS011;27097;51.738;19.472;2023-04-24T07:41:34;9.35;;;6.50;;
18411;SDS011;27097;51.738;19.472;2023-04-24T07:44:04;8.95;;;6.00;;
18411;SDS011;27097;51.738;19.472;2023-04-24T07:46:31;8.82;;;5.80;;
18411;SDS011;27097;51.738;19.472;2023-04-24T07:48:58;10.50;;;5.68;;
18411;SDS011;27097;51.738;19.472;2023-04-24T07:51:26;15.48;;;6.15;;
18411;SDS011;27097;51.738;19.472;2023-04-24T07:53:55;11.32;;;6.05;;
18411;SDS011;27097;51.738;19.472;2023-04-24T07:56:21;10.23;;;5.60;;
18411;SDS011;27097;51.738;19.472;2023-04-24T07:58:48;9.65;;;5.57;;
18411;SDS011;27097;51.738;19.472;2023-04-24T08:01:15;11.48;;;6.00;;
18411;SDS011;27097;51.738;19.472;2023-04-24T08:03:42;9.07;;;5.75;;
18411;SDS011;27097;51.738;19.472;2023-04-24T08:06:09;12.50;;;5.65;;
18411;SDS011;27097;51.738;19.472;2023-04-24T08:08:36;22.45;;;5.50;;
18411;SDS011;27097;51.738;19.472;2023-04-24T08:11:04;11.60;;;5.50;;
18411;SDS011;27097;51.738;19.472;2023-04-24T08:13:31;10.23;;;5.50;;
18411;SDS011;27097;51.738;19.472;2023-04-24T08:15:58;13.68;;;5.90;;
18411;SDS011;27097;51.738;19.472;2023-04-24T08:18:25;8.73;;;5.35;;
18411;SDS011;27097;51.738;19.472;2023-04-24T08:20:52;13.75;;;5.15;;
18411;SDS011;27097;51.738;19.472;2023-04-24T08:23:19;15.50;;;5.45;;
18411;SDS011;27097;51.738;19.472;2023-04-24T08:25:47;14.13;;;5.47;;
18411;SDS011;27097;51.738;19.472;2023-04-24T08:28:16;7.15;;;5.50;;
18411;SDS011;27097;51.738;19.472;2023-04-24T08:30:45;10.93;;;5.25;;
18411;SDS011;27097;51.738;19.472;2023-04-24T08:33:19;11.80;;;5.43;;
18411;SDS011;27097;51.738;19.472;2023-04-24T08:35:46;7.75;;;5.20;;
18411;SDS011;27097;51.738;19.472;2023-04-24T08:38:13;8.27;;;5.25;;
18411;SDS011;27097;51.738;19.472;2023-04-24T08:40:41;9.00;;;5.05;;
18411;SDS011;27097;51.738;19.472;2023-04-24T08:43:08;10.38;;;5.10;;
18411;SDS011;27097;51.738;19.472;2023-04-24T08:45:37;9.50;;;5.20;;
18411;SDS011;27097;51.738;19.472;2023-04-24T08:48:04;14.25;;;4.90;;
18411;SDS011;27097;51.738;19.472;2023-04-24T08:50:33;9.88;;;5.07;;
18411;SDS011;27097;51.738;19.472;2023-04-24T08:53:00;15.68;;;5.50;;
18411;SDS011;27097;51.738;19.472;2023-04-24T08:55:27;9.75;;;5.38;;
18411;SDS011;27097;51.738;19.472;2023-04-24T08:57:56;8.30;;;5.20;;
18411;SDS011;27097;51.738;19.472;2023-04-24T09:00:25;8.20;;;5.13;;
18411;SDS011;27097;51.738;19.472;2023-04-24T09:02:54;9.77;;;5.38;;
18411;SDS011;27097;51.738;19.472;2023-04-24T09:05:22;7.10;;;5.05;;
18411;SDS011;27097;51.738;19.472;2023-04-24T09:07:52;8.15;;;4.95;;
18411;SDS011;27097;51.738;19.472;2023-04-24T09:10:21;13.10;;;5.28;;
18411;SDS011;27097;51.738;19.472;2023-04-24T09:12:49;7.38;;;4.85;;
18411;SDS011;27097;51.738;19.472;2023-04-24T09:15:17;8.38;;;4.85;;
18411;SDS011;27097;51.738;19.472;2023-04-24T09:17:45;11.80;;;5.10;;
18411;SDS011;27097;51.738;19.472;2023-04-24T09:20:14;9.50;;;4.93;;
18411;SDS011;27097;51.738;19.472;2023-04-24T09:22:41;8.15;;;5.30;;
18411;SDS011;27097;51.738;19.472;2023-04-24T09:25:09;7.38;;;4.68;;
18411;SDS011;27097;51.738;19.472;2023-04-24T09:27:37;6.85;;;5.00;;
18411;SDS011;27097;51.738;19.472;2023-04-24T09:30:08;7.10;;;4.57;;
18411;SDS011;27097;51.738;19.472;2023-04-24T09:32:35;6.70;;;4.97;;
18411;SDS011;27097;51.738;19.472;2023-04-24T09:35:06;9.00;;;4.85;;
18411;SDS011;27097;51.738;19.472;2023-04-24T09:37:37;12.93;;;5.28;;
18411;SDS011;27097;51.738;19.472;2023-04-24T09:40:08;7.30;;;4.65;;
18411;SDS011;27097;51.738;19.472;2023-04-24T09:42:39;8.93;;;4.75;;
18411;SDS011;27097;51.738;19.472;2023-04-24T09:45:09;8.30;;;4.90;;
18411;SDS011;27097;51.738;19.472;2023-04-24T09:47:37;10.02;;;4.88;;
18411;SDS011;27097;51.738;19.472;2023-04-24T09:50:13;7.15;;;4.97;;
18411;SDS011;27097;51.738;19.472;2023-04-24T09:52:43;7.40;;;4.90;;
18411;SDS011;27097;51.738;19.472;2023-04-24T09:55:16;8.90;;;5.05;;
18411;SDS011;27097;51.738;19.472;2023-04-24T09:57:51;8.27;;;4.97;;
18411;SDS011;27097;51.738;19.472;2023-04-24T10:00:26;8.43;;;5.72;;
18411;SDS011;27097;51.738;19.472;2023-04-24T10:03:18;8.43;;;5.15;;
18411;SDS011;27097;51.738;19.472;2023-04-24T10:06:15;8.77;;;5.07;;
18411;SDS011;27097;51.738;19.472;2023-04-24T10:08:43;10.65;;;5.20;;
18411;SDS011;27097;51.738;19.472;2023-04-24T10:11:11;12.18;;;4.93;;
18411;SDS011;27097;51.738;19.472;2023-04-24T10:13:39;8.13;;;5.10;;
18411;SDS011;27097;51.738;19.472;2023-04-24T10:16:08;8.77;;;5.22;;
18411;SDS011;27097;51.738;19.472;2023-04-24T10:18:35;6.97;;;5.10;;
18411;SDS011;27097;51.738;19.472;2023-04-24T10:21:03;8.20;;;5.25;;
18411;SDS011;27097;51.738;19.472;2023-04-24T10:23:29;8.80;;;5.07;;
18411;SDS011;27097;51.738;19.472;2023-04-24T10:25:58;7.95;;;5.25;;
18411;SDS011;27097;51.738;19.472;2023-04-24T10:28:26;9.48;;;5.50;;
18411;SDS011;27097;51.738;19.472;2023-04-24T10:30:55;16.08;;;5.30;;
18411;SDS011;27097;51.738;19.472;2023-04-24T10:33:23;9.13;;;5.60;;
18411;SDS011;27097;51.738;19.472;2023-04-24T10:35:51;8.20;;;5.47;;
18411;SDS011;27097;51.738;19.472;2023-04-24T10:38:21;8.45;;;5.40;;
18411;SDS011;27097;51.738;19.472;2023-04-24T10:40:51;9.15;;;5.63;;
18411;SDS011;27097;51.738;19.472;2023-04-24T10:43:32;8.10;;;5.20;;
18411;SDS011;27097;51.738;19.472;2023-04-24T10:46:00;8.65;;;5.65;;
18411;SDS011;27097;51.738;19.472;2023-04-24T10:48:28;8.55;;;5.60;;
18411;SDS011;27097;51.738;19.472;2023-04-24T10:50:55;9.00;;;5.63;;
18411;SDS011;27097;51.738;19.472;2023-04-24T10:53:23;8.43;;;5.85;;
18411;SDS011;27097;51.738;19.472;2023-04-24T10:55:52;8.57;;;5.75;;
18411;SDS011;27097;51.738;19.472;2023-04-24T10:58:35;9.05;;;5.80;;
18411;SDS011;27097;51.738;19.472;2023-04-24T11:01:03;10.05;;;5.57;;
18411;SDS011;27097;51.738;19.472;2023-04-24T11:03:31;8.25;;;5.45;;
18411;SDS011;27097;51.738;19.472;2023-04-24T11:06:01;9.18;;;5.50;;
18411;SDS011;27097;51.738;19.472;2023-04-24T11:08:29;7.88;;;5.65;;
18411;SDS011;27097;51.738;19.472;2023-04-24T11:11:03;8.43;;;5.50;;
18411;SDS011;27097;51.738;19.472;2023-04-24T11:16:33;8.75;;;6.10;;
18411;SDS011;27097;51.738;19.472;2023-04-24T11:19:05;9.57;;;5.80;;
18411;SDS011;27097;51.738;19.472;2023-04-24T11:24:21;8.07;;;5.82;;
18411;SDS011;27097;51.738;19.472;2023-04-24T11:27:07;9.48;;;5.88;;
18411;SDS011;27097;51.738;19.472;2023-04-24T11:29:41;8.43;;;5.93;;
18411;SDS011;27097;51.738;19.472;2023-04-24T11:32:23;7.65;;;5.80;;
18411;SDS011;27097;51.738;19.472;2023-04-24T11:34:51;8.85;;;6.22;;
18411;SDS011;27097;51.738;19.472;2023-04-24T11:37:19;10.55;;;5.78;;
18411;SDS011;27097;51.738;19.472;2023-04-24T11:39:55;8.25;;;5.93;;
18411;SDS011;27097;51.738;19.472;2023-04-24T11:42:24;10.35;;;5.80;;
18411;SDS011;27097;51.738;19.472;2023-04-24T11:44:52;8.55;;;5.40;;
18411;SDS011;27097;51.738;19.472;2023-04-24T11:47:20;9.82;;;5.70;;
18411;SDS011;27097;51.738;19.472;2023-04-24T11:49:54;9.35;;;5.53;;
18411;SDS011;27097;51.738;19.472;2023-04-24T11:52:21;11.50;;;6.22;;
18411;SDS011;27097;51.738;19.472;2023-04-24T11:54:48;8.05;;;5.88;;
18411;SDS011;27097;51.738;19.472;2023-04-24T11:57:16;6.88;;;5.38;;
18411;SDS011;27097;51.738;19.472;2023-04-24T11:59:46;7.22;;;5.40;;
18411;SDS011;27097;51.738;19.472;2023-04-24T12:02:20;7.63;;;5.20;;
18411;SDS011;27097;51.738;19.472;2023-04-24T12:04:47;6.97;;;5.55;;
18411;SDS011;27097;51.738;19.472;2023-04-24T12:07:16;11.23;;;5.45;;
18411;SDS011;27097;51.738;19.472;2023-04-24T12:09:43;10.73;;;5.45;;
18411;SDS011;27097;51.738;19.472;2023-04-24T12:12:12;11.93;;;6.03;;
18411;SDS011;27097;51.738;19.472;2023-04-24T12:14:43;11.82;;;5.35;;
18411;SDS011;27097;51.738;19.472;2023-04-24T12:17:13;9.77;;;5.60;;
18411;SDS011;27097;51.738;19.472;2023-04-24T12:19:44;9.43;;;5.13;;
18411;SDS011;27097;51.738;19.472;2023-04-24T12:22:12;7.03;;;5.18;;
18411;SDS011;27097;51.738;19.472;2023-04-24T12:27:24;8.27;;;5.38;;
18411;SDS011;27097;51.738;19.472;2023-04-24T12:29:52;11.73;;;5.78;;
18411;SDS011;27097;51.738;19.472;2023-04-24T12:32:21;9.25;;;5.40;;
18411;SDS011;27097;51.738;19.472;2023-04-24T12:34:49;6.63;;;5.15;;
18411;SDS011;27097;51.738;19.472;2023-04-24T12:37:16;7.95;;;5.53;;
18411;SDS011;27097;51.738;19.472;2023-04-24T12:39:44;9.30;;;5.30;;
18411;SDS011;27097;51.738;19.472;2023-04-24T12:42:25;8.10;;;5.10;;
18411;SDS011;27097;51.738;19.472;2023-04-24T12:44:55;7.85;;;5.03;;
18411;SDS011;27097;51.738;19.472;2023-04-24T12:47:25;6.95;;;5.45;;
18411;SDS011;27097;51.738;19.472;2023-04-24T12:49:52;8.18;;;5.10;;
18411;SDS011;27097;51.738;19.472;2023-04-24T12:52:20;7.75;;;5.07;;
18411;SDS011;27097;51.738;19.472;2023-04-24T12:54:48;10.15;;;5.60;;
18411;SDS011;27097;51.738;19.472;2023-04-24T12:57:15;7.55;;;4.70;;
18411;SDS011;27097;51.738;19.472;2023-04-24T12:59:42;8.60;;;5.15;;
18411;SDS011;27097;51.738;19.472;2023-04-24T13:02:09;12.68;;;5.30;;
18411;SDS011;27097;51.738;19.472;2023-04-24T13:04:46;7.50;;;4.80;;
18411;SDS011;27097;51.738;19.472;2023-04-24T13:07:13;11.02;;;5.38;;
18411;SDS011;27097;51.738;19.472;2023-04-24T13:09:40;12.85;;;5.10;;
18411;SDS011;27097;51.738;19.472;2023-04-24T13:12:07;13.18;;;4.90;;
18411;SDS011;27097;51.738;19.472;2023-04-24T13:14:35;10.88;;;5.30;;
18411;SDS011;27097;51.738;19.472;2023-04-24T13:17:02;8.93;;;5.10;;
18411;SDS011;27097;51.738;19.472;2023-04-24T13:19:30;13.68;;;5.15;;
18411;SDS011;27097;51.738;19.472;2023-04-24T13:22:04;9.88;;;5.03;;
18411;SDS011;27097;51.738;19.472;2023-04-24T13:24:31;12.82;;;5.25;;
18411;SDS011;27097;51.738;19.472;2023-04-24T13:26:58;13.88;;;5.05;;
18411;SDS011;27097;51.738;19.472;2023-04-24T13:29:26;9.88;;;5.25;;
18411;SDS011;27097;51.738;19.472;2023-04-24T13:31:53;12.07;;;4.63;;
18411;SDS011;27097;51.738;19.472;2023-04-24T13:34:21;9.77;;;4.70;;
18411;SDS011;27097;51.738;19.472;2023-04-24T13:36:49;6.70;;;4.60;;
18411;SDS011;27097;51.738;19.472;2023-04-24T13:39:17;9.13;;;4.53;;
18411;SDS011;27097;51.738;19.472;2023-04-24T13:41:45;9.82;;;4.88;;
18411;SDS011;27097;51.738;19.472;2023-04-24T13:44:12;9.43;;;4.60;;
18411;SDS011;27097;51.738;19.472;2023-04-24T13:46:40;11.88;;;5.05;;
18411;SDS011;27097;51.738;19.472;2023-04-24T13:49:07;13.93;;;4.53;;
18411;SDS011;27097;51.738;19.472;2023-04-24T13:51:34;8.30;;;4.85;;
18411;SDS011;27097;51.738;19.472;2023-04-24T13:54:00;12.77;;;5.55;;
18411;SDS011;27097;51.738;19.472;2023-04-24T13:56:29;12.20;;;5.63;;
18411;SDS011;27097;51.738;19.472;2023-04-24T13:58:55;13.00;;;5.30;;
18411;SDS011;27097;51.738;19.472;2023-04-24T14:01:23;9.68;;;5.18;;
18411;SDS011;27097;51.738;19.472;2023-04-24T14:03:50;11.38;;;5.22;;
18411;SDS011;27097;51.738;19.472;2023-04-24T14:06:17;15.38;;;5.35;;
18411;SDS011;27097;51.738;19.472;2023-04-24T14:08:44;10.45;;;5.07;;
18411;SDS011;27097;51.738;19.472;2023-04-24T14:11:11;10.85;;;5.70;;
18411;SDS011;27097;51.738;19.472;2023-04-24T14:13:39;17.23;;;6.78;;
18411;SDS011;27097;51.738;19.472;2023-04-24T14:16:07;13.07;;;5.68;;
18411;SDS011;27097;51.738;19.472;2023-04-24T14:18:34;13.18;;;5.25;;
18411;SDS011;27097;51.738;19.472;2023-04-24T14:21:01;10.48;;;5.60;;
18411;SDS011;27097;51.738;19.472;2023-04-24T14:23:28;9.68;;;5.40;;
18411;SDS011;27097;51.738;19.472;2023-04-24T14:25:56;9.73;;;4.80;;
18411;SDS011;27097;51.738;19.472;2023-04-24T14:28:23;9.20;;;5.45;;
18411;SDS011;27097;51.738;19.472;2023-04-24T14:30:51;11.65;;;5.20;;
18411;SDS011;27097;51.738;19.472;2023-04-24T14:33:18;12.45;;;5.40;;
18411;SDS011;27097;51.738;19.472;2023-04-24T14:35:45;9.98;;;5.28;;
18411;SDS011;27097;51.738;19.472;2023-04-24T14:38:12;8.88;;;5.05;;
18411;SDS011;27097;51.738;19.472;2023-04-24T14:40:40;10.10;;;5.40;;